Ellsworth Air Force Base
KRCA : rendu visible

Aérodrome :











RETROUVEZ-NOUS SUR...

 
LOGIN :

S'inscrire | Disclaimer

   EN    FR    IT 

 









Légende :    VFR   VFR Marginal   IFR   IFR Intensif   IFR Très Intensif
Visi : 
Plafond : 
>= 8 km
>= 3000ft
5 à 8 km
1000 à 3000 ft
1500m à 5 km
500 à 1000 ft
800 à 1500m
200 à 500 ft
< 800m
< 200 ft
Symboles :   Orages  Brouillard  Fortes neiges  Fortes précipitations  Vent > 20 kt






- Altitude de l'aérodrome : 3276 ft


KRCA - Ellsworth Air Force Base

DERNIER METAR :
  • 241441Z 33014KT 10SM BKN010 M04/M06 A2971 RMK AO2A BKN V SCT CIG 009 RWY13 SLP097 $

METARs EXPIRÉS :
  • 241356Z AUTO 34010KT 10SM CLR M04/M06 A2970 RMK AO2 SLP090 T10431061 $
  • 241256Z AUTO 33010KT 10SM CLR M03/M05 A2969 RMK AO2 SLP084 T10291054 $
  • 241156Z AUTO 12006KT 10SM SCT120 M03/M05 A2966 RMK AO2 SLP071 T10291054 11003 21029 56017 $

TAF AMD TAF KRCA
Valide du 24 à 13h jusqu'au 25 à 17h UTC


241350Z 2413/2517 VRB06KT 9999 BKN110 510001 QNH2968INS
BECMG 2414/2415 31025G35KT 9999 BKN015 620159 520001 QNH2972INS
BECMG 2416/2417 32025G35KT 6000 -SN BKN010 620109 520001 QNH2975INS
BECMG 2423/2424 34015G25KT 3200 -SN BKN006 620069 510001 QNH2982INS
BECMG 2508/2509 01012KT 3200 -SN BKN008 620089 QNH3007INS TX01/2417Z TNM06/2514Z



MET'MAP, la Météo Aéronautique d'un coup d'oeil ! - Copyright ORBIFLY Décembre 2007 - Disclaimer

ORBIFLY MET'MAP TEAM :

Programmation & Développement : Alexandra Zaïnal
Sur une idée originale de : Baudouin d'Aumeries
Assistance à la programmation : Marc-Olivier Méhu
Soutien technique & logistique : Manuel Goepfert

Contact : metmap@orbifly.com




SOURCES & CREDITS :

   NOAA       Earth
Advisory